createdAt,value
2019-01-26T00:01:47.671Z,25.27
2019-01-26T00:04:18.711Z,27.13
2019-01-26T00:06:49.647Z,25.80
2019-01-26T00:09:19.949Z,26.20
2019-01-26T00:11:50.736Z,27.13
2019-01-26T00:14:21.664Z,27.53
2019-01-26T00:16:52.430Z,26.50
2019-01-26T00:19:23.098Z,25.27
2019-01-26T00:21:53.817Z,27.63
2019-01-26T00:24:24.436Z,27.07
2019-01-26T00:26:54.853Z,26.53
2019-01-26T00:29:27.023Z,25.60
2019-01-26T00:31:57.876Z,26.17
2019-01-26T00:34:30.076Z,25.53
2019-01-26T00:37:00.892Z,25.73
2019-01-26T00:39:31.495Z,24.27
2019-01-26T00:42:02.119Z,25.67
2019-01-26T00:44:34.120Z,25.50
2019-01-26T00:47:04.817Z,25.77
2019-01-26T00:49:35.459Z,26.23
2019-01-26T00:52:06.006Z,26.93
2019-01-26T00:54:38.366Z,26.87
2019-01-26T00:57:09.126Z,26.50
2019-01-26T00:59:41.174Z,27.63
2019-01-26T01:02:11.826Z,25.77
2019-01-26T01:04:42.413Z,28.13
2019-01-26T01:07:14.611Z,27.57
2019-01-26T01:09:45.286Z,27.87
2019-01-26T01:12:16.008Z,27.10
2019-01-26T01:14:47.456Z,27.40
2019-01-26T01:17:17.745Z,27.77
2019-01-26T01:19:49.066Z,27.87
2019-01-26T01:22:19.724Z,26.80
2019-01-26T01:24:50.360Z,28.00
2019-01-26T01:27:20.963Z,27.33
2019-01-26T01:29:51.598Z,28.23
2019-01-26T01:32:21.877Z,27.77
2019-01-26T01:34:52.533Z,26.47
2019-01-26T01:37:23.077Z,27.60
2019-01-26T01:39:57.612Z,26.73
2019-01-26T01:42:27.954Z,27.90
2019-01-26T01:44:58.595Z,28.80
2019-01-26T01:47:29.225Z,27.93
2019-01-26T01:49:59.983Z,29.13
2019-01-26T01:52:30.665Z,27.97
2019-01-26T01:55:01.394Z,28.47
2019-01-26T01:57:32.155Z,26.53
2019-01-26T02:00:02.763Z,26.37
2019-01-26T02:02:33.516Z,26.67
2019-01-26T02:05:08.439Z,26.77
2019-01-26T02:07:39.166Z,27.00
2019-01-26T02:10:12.285Z,26.77
2019-01-26T02:12:42.889Z,25.50
2019-01-26T02:15:14.091Z,26.10
2019-01-26T02:17:44.690Z,25.83
2019-01-26T02:20:17.736Z,26.87
2019-01-26T02:22:48.390Z,27.60
2019-01-26T02:25:22.097Z,27.33
2019-01-26T02:27:52.865Z,25.90
2019-01-26T02:30:24.074Z,27.37
2019-01-26T02:32:54.912Z,25.17
2019-01-26T02:35:25.476Z,25.40
2019-01-26T02:37:56.060Z,25.33
2019-01-26T02:40:26.703Z,28.07
2019-01-26T02:42:57.235Z,26.60
2019-01-26T02:45:27.488Z,25.67
2019-01-26T02:47:58.067Z,26.87
2019-01-26T02:50:28.714Z,25.90
2019-01-26T02:52:59.293Z,26.23
2019-01-26T02:55:29.604Z,25.67
2019-01-26T02:58:00.271Z,26.00
2019-01-26T03:00:30.899Z,26.00
2019-01-26T03:03:01.448Z,27.03
2019-01-26T03:05:32.094Z,26.33
2019-01-26T03:08:02.729Z,25.70
2019-01-26T03:10:33.344Z,25.73
2019-01-26T03:13:04.002Z,26.03
2019-01-26T03:15:34.624Z,26.43
2019-01-26T03:18:06.361Z,26.83
2019-01-26T03:20:36.905Z,26.37
2019-01-26T03:23:07.449Z,26.63
2019-01-26T03:25:37.778Z,25.63
2019-01-26T03:28:08.485Z,27.40
2019-01-26T03:30:39.136Z,27.47
2019-01-26T03:33:09.696Z,26.50
2019-01-26T03:35:40.416Z,27.23
2019-01-26T03:38:12.570Z,26.97
2019-01-26T03:40:42.896Z,26.63
2019-01-26T03:43:13.727Z,27.33
2019-01-26T03:45:44.425Z,27.07
2019-01-26T03:48:15.126Z,25.63
2019-01-26T03:50:45.987Z,27.03
2019-01-26T03:53:16.695Z,26.50
2019-01-26T03:55:47.389Z,26.87
2019-01-26T03:58:17.924Z,26.67
2019-01-26T04:00:48.577Z,26.60
2019-01-26T04:03:19.187Z,27.67
2019-01-26T04:05:49.911Z,27.33
2019-01-26T04:08:20.544Z,26.67
2019-01-26T04:10:51.177Z,26.07
2019-01-26T04:13:21.901Z,27.30
2019-01-26T04:15:52.544Z,26.80
2019-01-26T04:18:23.473Z,26.33
2019-01-26T04:20:54.122Z,25.97
2019-01-26T04:23:24.642Z,25.90
2019-01-26T04:25:55.276Z,26.47
2019-01-26T04:28:25.942Z,27.17
2019-01-26T04:30:56.271Z,27.67
2019-01-26T04:33:26.985Z,27.83
2019-01-26T04:35:57.580Z,27.80
2019-01-26T04:38:28.229Z,27.50
2019-01-26T04:40:59.854Z,28.67
2019-01-26T04:43:30.431Z,26.90
2019-01-26T04:46:01.153Z,27.43
2019-01-26T04:48:31.771Z,27.10
2019-01-26T04:51:02.053Z,27.27
2019-01-26T04:53:32.724Z,28.67
2019-01-26T04:56:03.381Z,28.27
2019-01-26T04:58:34.138Z,27.30
2019-01-26T05:01:04.737Z,27.07
2019-01-26T05:03:35.333Z,28.33
2019-01-26T05:06:06.061Z,27.47
2019-01-26T05:08:36.749Z,28.10
2019-01-26T05:11:07.056Z,26.90
2019-01-26T05:13:38.107Z,26.93
2019-01-26T05:16:08.818Z,26.57
2019-01-26T05:18:39.349Z,28.07
2019-01-26T05:21:10.041Z,26.13
2019-01-26T05:23:40.307Z,27.93
2019-01-26T05:26:10.938Z,26.80
2019-01-26T05:28:41.484Z,27.60
2019-01-26T05:31:12.281Z,27.80
2019-01-26T05:33:43.000Z,27.23
2019-01-26T05:36:13.564Z,26.63
2019-01-26T05:38:44.239Z,26.27
2019-01-26T05:41:14.851Z,26.17
2019-01-26T05:43:45.576Z,26.73
2019-01-26T05:46:15.927Z,27.37
2019-01-26T05:48:46.140Z,27.00
2019-01-26T05:51:16.764Z,27.27
2019-01-26T05:53:49.032Z,25.77
2019-01-26T05:56:19.666Z,26.40
2019-01-26T05:58:50.503Z,25.63
2019-01-26T06:01:21.130Z,27.03
2019-01-26T06:03:51.672Z,26.50
2019-01-26T06:06:22.326Z,25.97
2019-01-26T06:08:52.920Z,26.27
2019-01-26T06:11:23.656Z,26.63
2019-01-26T06:13:54.381Z,26.00
2019-01-26T06:16:25.061Z,25.33
2019-01-26T06:18:55.579Z,25.33
2019-01-26T06:21:26.187Z,27.60
2019-01-26T06:23:57.025Z,25.87
2019-01-26T06:26:27.948Z,25.70
2019-01-26T06:28:59.169Z,26.17
2019-01-26T06:31:29.430Z,25.57
2019-01-26T06:34:01.623Z,26.00
2019-01-26T06:36:32.212Z,26.13
2019-01-26T06:39:04.424Z,26.23
2019-01-26T06:41:35.031Z,26.30
2019-01-26T06:44:05.714Z,25.33
2019-01-26T06:46:36.290Z,26.17
2019-01-26T06:49:06.905Z,25.50
2019-01-26T06:51:39.200Z,26.03
2019-01-26T06:54:09.717Z,25.27
2019-01-26T06:56:40.366Z,25.47
2019-01-26T06:59:10.868Z,25.67
2019-01-26T07:01:42.017Z,23.67
2019-01-26T07:04:14.237Z,22.57
2019-01-26T07:06:46.454Z,24.13
2019-01-26T07:09:16.749Z,24.10
2019-01-26T07:11:47.416Z,23.60
2019-01-26T07:14:18.050Z,23.53
2019-01-26T07:16:48.738Z,23.30
2019-01-26T07:19:19.007Z,23.27
2019-01-26T07:21:49.660Z,21.80
2019-01-26T07:24:20.374Z,21.23
2019-01-26T07:26:50.621Z,22.60
2019-01-26T07:29:21.110Z,22.27
2019-01-26T07:31:51.754Z,20.90
2019-01-26T07:34:22.270Z,21.97
2019-01-26T07:36:52.801Z,23.13
2019-01-26T07:39:23.355Z,22.00
2019-01-26T07:41:54.089Z,20.47
2019-01-26T07:44:24.607Z,20.73
2019-01-26T07:46:55.254Z,21.77
2019-01-26T07:49:25.874Z,20.37
2019-01-26T07:51:56.601Z,21.00
2019-01-26T07:54:27.233Z,19.90
2019-01-26T07:56:57.865Z,20.87
2019-01-26T07:59:28.485Z,20.73
2019-01-26T08:01:59.029Z,20.37
2019-01-26T08:04:29.661Z,20.27
2019-01-26T08:07:00.493Z,21.20
2019-01-26T08:09:33.783Z,20.33
2019-01-26T08:12:04.410Z,21.33
2019-01-26T08:14:34.628Z,21.37
2019-01-26T08:17:05.066Z,20.93
2019-01-26T08:19:36.521Z,22.00
2019-01-26T08:22:07.277Z,20.27
2019-01-26T08:24:37.992Z,20.00
2019-01-26T08:27:08.503Z,20.30
2019-01-26T08:29:39.257Z,21.37
2019-01-26T08:32:12.335Z,20.07
2019-01-26T08:34:42.971Z,19.60
2019-01-26T08:37:13.520Z,22.53
2019-01-26T08:39:44.260Z,22.73
2019-01-26T08:42:14.867Z,21.17
2019-01-26T08:44:45.506Z,21.10
2019-01-26T08:47:16.131Z,20.63
2019-01-26T08:49:46.763Z,20.37
2019-01-26T08:52:18.050Z,19.10
2019-01-26T08:54:49.185Z,19.17
2019-01-26T08:57:19.931Z,20.13
2019-01-26T08:59:50.623Z,20.60
2019-01-26T09:02:33.339Z,20.27
2019-01-26T09:05:05.140Z,19.37
2019-01-26T09:07:35.733Z,19.23
2019-01-26T09:10:07.540Z,19.03
2019-01-26T09:12:38.114Z,19.47
2019-01-26T09:15:10.273Z,19.87
2019-01-26T09:17:43.431Z,19.47
2019-01-26T09:20:19.228Z,19.20
2019-01-26T09:22:49.790Z,18.57
2019-01-26T09:25:20.051Z,19.00
2019-01-26T09:27:50.710Z,18.17
2019-01-26T09:30:23.605Z,18.93
2019-01-26T09:32:54.831Z,19.50
2019-01-26T09:35:25.397Z,19.20
2019-01-26T09:37:56.141Z,19.00
2019-01-26T09:40:28.162Z,18.10
2019-01-26T09:42:58.922Z,18.67
2019-01-26T09:45:29.592Z,17.37
2019-01-26T09:48:00.390Z,16.73
2019-01-26T09:50:30.960Z,17.40
2019-01-26T09:53:01.670Z,16.93
2019-01-26T09:55:32.419Z,18.37
2019-01-26T09:58:03.274Z,18.30
2019-01-26T10:00:33.869Z,16.27
2019-01-26T10:03:06.875Z,18.13
2019-01-26T10:05:39.703Z,16.07
2019-01-26T10:08:10.558Z,16.30
2019-01-26T10:10:42.925Z,14.30
2019-01-26T10:13:13.603Z,15.13
2019-01-26T10:15:44.326Z,12.90
2019-01-26T10:18:15.334Z,13.60
2019-01-26T10:20:45.869Z,13.13
2019-01-26T10:23:16.621Z,12.80
2019-01-26T10:25:48.665Z,12.50
2019-01-26T10:28:19.760Z,13.23
2019-01-26T10:30:51.960Z,11.93
2019-01-26T10:33:22.604Z,11.90
2019-01-26T10:36:04.203Z,12.30
2019-01-26T10:38:36.495Z,13.60
2019-01-26T10:41:08.796Z,12.50
2019-01-26T10:43:43.964Z,13.10
2019-01-26T10:46:14.737Z,14.70
2019-01-26T10:48:45.472Z,13.07
2019-01-26T10:51:16.078Z,14.07
2019-01-26T10:53:46.781Z,14.30
2019-01-26T10:56:17.451Z,19.87
2019-01-26T10:58:48.076Z,13.93
2019-01-26T11:01:18.596Z,13.53
2019-01-26T11:03:49.217Z,13.90
2019-01-26T11:06:19.746Z,14.03
2019-01-26T11:08:50.411Z,13.40
2019-01-26T11:11:21.023Z,13.20
2019-01-26T11:13:53.320Z,13.87
2019-01-26T11:16:24.072Z,16.53
2019-01-26T11:18:54.799Z,15.93
2019-01-26T11:21:25.622Z,17.07
2019-01-26T11:23:55.939Z,12.70
2019-01-26T11:26:26.549Z,12.07
2019-01-26T11:28:57.323Z,12.63
2019-01-26T11:31:28.581Z,10.73
2019-01-26T11:34:09.854Z,12.07
2019-01-26T11:36:42.299Z,11.33
2019-01-26T11:39:12.933Z,11.60
2019-01-26T11:41:43.563Z,10.90
2019-01-26T11:44:14.309Z,11.60
2019-01-26T11:46:44.921Z,11.13
2019-01-26T11:49:15.587Z,11.80
2019-01-26T11:51:45.875Z,11.10
2019-01-26T11:54:16.410Z,10.73
2019-01-26T11:56:48.699Z,10.80
2019-01-26T11:59:19.545Z,11.10
2019-01-26T12:01:51.772Z,9.70
2019-01-26T12:04:30.011Z,13.23
2019-01-26T12:07:02.379Z,11.63
2019-01-26T12:09:33.197Z,10.67
2019-01-26T12:12:04.882Z,10.50
2019-01-26T12:14:35.688Z,9.67
2019-01-26T12:17:06.223Z,9.63
2019-01-26T12:19:41.610Z,9.63
2019-01-26T12:22:12.263Z,9.53
2019-01-26T12:24:42.916Z,9.80
2019-01-26T12:27:13.561Z,9.37
2019-01-26T12:29:44.207Z,9.13
2019-01-26T12:32:14.727Z,9.93
2019-01-26T12:34:45.419Z,9.40
2019-01-26T12:37:15.755Z,9.53
2019-01-26T12:39:46.529Z,8.00
2019-01-26T12:42:17.169Z,8.30
2019-01-26T12:44:47.773Z,12.10
2019-01-26T12:47:19.237Z,8.20
2019-01-26T12:49:49.564Z,7.97
2019-01-26T12:52:20.407Z,7.60
2019-01-26T12:54:51.048Z,6.87
2019-01-26T12:57:21.600Z,6.80
2019-01-26T12:59:51.884Z,6.80
2019-01-26T13:02:22.496Z,7.47
2019-01-26T13:04:53.144Z,7.73
2019-01-26T13:07:23.679Z,7.93
2019-01-26T13:09:54.308Z,6.57
2019-01-26T13:12:24.594Z,6.80
2019-01-26T13:14:55.283Z,6.97
2019-01-26T13:17:26.412Z,5.77
2019-01-26T13:19:57.041Z,5.87
2019-01-26T13:22:27.675Z,5.87
2019-01-26T13:24:58.443Z,5.90
2019-01-26T13:27:29.135Z,6.07
2019-01-26T13:30:01.324Z,5.50
2019-01-26T13:32:31.760Z,5.93
2019-01-26T13:35:05.231Z,6.50
2019-01-26T13:37:37.110Z,5.67
2019-01-26T13:40:12.336Z,6.40
2019-01-26T13:42:42.983Z,5.67
2019-01-26T13:45:15.537Z,5.73
2019-01-26T13:47:46.173Z,6.23
2019-01-26T13:50:16.828Z,6.17
2019-01-26T13:52:51.324Z,6.23
2019-01-26T13:55:23.484Z,6.80
2019-01-26T13:57:54.086Z,6.27
2019-01-26T14:00:30.948Z,6.70
2019-01-26T14:03:03.305Z,6.33
2019-01-26T14:05:33.527Z,6.97
2019-01-26T14:08:04.127Z,5.93
2019-01-26T14:10:36.513Z,6.17
2019-01-26T14:13:07.144Z,6.60
2019-01-26T14:15:37.490Z,5.90
2019-01-26T14:18:08.109Z,6.27
2019-01-26T14:20:38.428Z,7.20
2019-01-26T14:23:08.922Z,6.23
2019-01-26T14:25:40.163Z,7.13
2019-01-26T14:28:10.831Z,7.00
2019-01-26T14:30:44.938Z,6.90
2019-01-26T14:33:15.675Z,6.57
2019-01-26T14:35:46.256Z,7.37
2019-01-26T14:38:16.827Z,7.73
2019-01-26T14:40:47.382Z,7.27
2019-01-26T14:43:17.748Z,7.87
2019-01-26T14:45:48.544Z,7.77
2019-01-26T14:48:18.789Z,6.27
2019-01-26T14:50:49.096Z,8.43
2019-01-26T14:53:19.735Z,6.53
2019-01-26T14:55:50.529Z,6.63
2019-01-26T14:58:21.205Z,5.53
2019-01-26T15:00:51.916Z,6.00
2019-01-26T15:03:22.786Z,6.27
2019-01-26T15:06:00.653Z,5.97
2019-01-26T15:08:31.496Z,6.50
2019-01-26T15:11:01.962Z,6.20
2019-01-26T15:13:32.779Z,5.87
2019-01-26T15:16:03.483Z,5.73
2019-01-26T15:18:36.433Z,6.20
2019-01-26T15:21:07.091Z,6.27
2019-01-26T15:23:37.856Z,6.10
2019-01-26T15:26:08.500Z,6.33
2019-01-26T15:28:42.959Z,6.23
2019-01-26T15:31:11.595Z,6.00
2019-01-26T15:33:42.244Z,6.80
2019-01-26T15:36:12.552Z,7.27
2019-01-26T15:38:43.179Z,7.53
2019-01-26T15:41:13.895Z,8.83
2019-01-26T15:43:44.883Z,14.63
2019-01-26T15:46:15.632Z,12.63
2019-01-26T15:48:46.355Z,9.77
2019-01-26T15:51:18.818Z,8.37
2019-01-26T15:53:49.500Z,7.37
2019-01-26T15:56:20.163Z,7.37
2019-01-26T15:58:50.915Z,8.03
2019-01-26T16:01:21.705Z,8.63
2019-01-26T16:03:52.372Z,9.33
2019-01-26T16:06:23.366Z,8.67
2019-01-26T16:08:54.152Z,8.30
2019-01-26T16:11:24.888Z,8.73
2019-01-26T16:13:55.206Z,8.10
2019-01-26T16:16:25.927Z,14.10
2019-01-26T16:18:56.649Z,10.23
2019-01-26T16:21:28.935Z,8.90
2019-01-26T16:23:59.676Z,9.40
2019-01-26T16:26:30.285Z,9.77
2019-01-26T16:29:01.061Z,8.20
2019-01-26T16:31:31.708Z,8.83
2019-01-26T16:34:02.148Z,9.43
2019-01-26T16:36:32.876Z,8.50
2019-01-26T16:39:05.040Z,9.67
2019-01-26T16:41:35.885Z,8.40
2019-01-26T16:44:06.451Z,9.23
2019-01-26T16:46:39.910Z,9.37
2019-01-26T16:49:10.489Z,10.13
2019-01-26T16:51:41.129Z,10.57
2019-01-26T16:54:11.882Z,9.73
2019-01-26T16:56:42.605Z,9.80
2019-01-26T16:59:13.304Z,9.27
2019-01-26T17:01:43.966Z,10.00
2019-01-26T17:04:14.310Z,10.37
2019-01-26T17:06:45.017Z,10.70
2019-01-26T17:09:15.721Z,11.20
2019-01-26T17:11:46.559Z,11.87
2019-01-26T17:14:17.228Z,11.27
2019-01-26T17:16:47.972Z,13.33
2019-01-26T17:19:18.780Z,12.33
2019-01-26T17:21:49.403Z,12.93
2019-01-26T17:24:19.952Z,14.03
2019-01-26T17:26:52.850Z,13.57
2019-01-26T17:29:23.038Z,19.27
2019-01-26T17:31:53.686Z,14.90
2019-01-26T17:34:30.081Z,14.23
2019-01-26T17:36:56.432Z,14.00
2019-01-26T17:39:28.231Z,19.03
2019-01-26T17:41:58.590Z,24.53
2019-01-26T17:44:30.208Z,17.37
2019-01-26T17:47:00.961Z,16.30
2019-01-26T17:49:31.677Z,15.80
2019-01-26T17:52:03.554Z,15.70
2019-01-26T17:54:33.880Z,15.73
2019-01-26T17:57:04.532Z,14.40
2019-01-26T17:59:35.217Z,14.20
2019-01-26T18:02:07.283Z,16.23
2019-01-26T18:04:37.942Z,15.57
2019-01-26T18:07:08.671Z,15.63
2019-01-26T18:09:39.300Z,15.60
2019-01-26T18:12:09.949Z,15.40
2019-01-26T18:14:40.700Z,15.47
2019-01-26T18:17:11.386Z,15.33
2019-01-26T18:19:42.035Z,15.00
2019-01-26T18:22:12.664Z,14.97
2019-01-26T18:24:43.315Z,17.70
2019-01-26T18:27:15.417Z,17.43
2019-01-26T18:29:47.990Z,17.70
2019-01-26T18:32:18.384Z,18.67
2019-01-26T18:34:48.686Z,20.17
2019-01-26T18:37:20.083Z,18.83
2019-01-26T18:39:50.803Z,16.27
2019-01-26T18:42:21.522Z,14.70
2019-01-26T18:44:52.161Z,14.83
2019-01-26T18:47:24.191Z,15.67
2019-01-26T18:49:54.489Z,14.33
2019-01-26T18:52:25.151Z,15.63
2019-01-26T18:54:55.944Z,14.87
2019-01-26T18:57:26.305Z,14.07
2019-01-26T18:59:59.668Z,13.60
2019-01-26T19:02:30.083Z,14.43
2019-01-26T19:05:03.963Z,14.27
2019-01-26T19:07:34.719Z,12.50
2019-01-26T19:10:08.805Z,13.50
2019-01-26T19:12:39.527Z,12.67
2019-01-26T19:15:13.776Z,13.07
2019-01-26T19:17:44.599Z,11.70
2019-01-26T19:20:16.160Z,13.07
2019-01-26T19:22:46.904Z,12.33
2019-01-26T19:25:21.849Z,13.07
2019-01-26T19:27:53.711Z,13.03
2019-01-26T19:30:24.608Z,11.80
2019-01-26T19:32:57.145Z,12.03
2019-01-26T19:35:27.820Z,12.80
2019-01-26T19:37:58.662Z,11.70
2019-01-26T19:40:29.170Z,11.50
2019-01-26T19:43:00.528Z,13.30
2019-01-26T19:45:31.923Z,11.83
2019-01-26T19:48:03.387Z,12.37
2019-01-26T19:50:35.774Z,12.30
2019-01-26T19:53:08.898Z,14.07
2019-01-26T19:55:39.890Z,12.37
2019-01-26T19:58:10.439Z,11.73
2019-01-26T20:00:42.431Z,11.80
2019-01-26T20:03:13.074Z,12.40
2019-01-26T20:05:48.066Z,12.40
2019-01-26T20:08:15.954Z,11.97
2019-01-26T20:10:46.732Z,12.53
2019-01-26T20:13:17.219Z,12.17
2019-01-26T20:15:48.001Z,12.03
2019-01-26T20:18:18.854Z,11.83
2019-01-26T20:20:53.408Z,12.00
2019-01-26T20:23:23.763Z,12.83
2019-01-26T20:25:54.384Z,12.70
2019-01-26T20:28:25.132Z,11.73
2019-01-26T20:30:55.906Z,12.67
2019-01-26T20:33:26.721Z,13.03
2019-01-26T20:35:58.350Z,13.40
2019-01-26T20:38:29.165Z,13.77
2019-01-26T20:40:59.746Z,21.90
2019-01-26T20:43:30.115Z,28.60
2019-01-26T20:46:00.770Z,36.23
2019-01-26T20:48:31.494Z,16.43
2019-01-26T20:51:02.229Z,13.60
2019-01-26T20:53:32.904Z,12.57
2019-01-26T20:56:03.748Z,12.30
2019-01-26T20:58:35.158Z,13.50
2019-01-26T21:01:05.911Z,13.10
2019-01-26T21:03:36.695Z,12.40
2019-01-26T21:06:07.252Z,11.57
2019-01-26T21:08:38.060Z,12.80
2019-01-26T21:11:09.572Z,11.90
2019-01-26T21:13:40.390Z,12.40
2019-01-26T21:16:11.768Z,13.10
2019-01-26T21:18:42.498Z,12.00
2019-01-26T21:21:13.232Z,12.83
2019-01-26T21:23:44.044Z,11.67
2019-01-26T21:26:14.824Z,12.57
2019-01-26T21:28:45.744Z,11.73
2019-01-26T21:31:16.447Z,11.73
2019-01-26T21:33:46.756Z,10.73
2019-01-26T21:36:19.163Z,11.60
2019-01-26T21:38:49.839Z,11.63
2019-01-26T21:41:20.530Z,12.07
2019-01-26T21:43:51.279Z,12.80
2019-01-26T21:46:21.993Z,13.53
2019-01-26T21:48:52.415Z,14.83
2019-01-26T21:51:23.369Z,16.47
2019-01-26T21:53:55.320Z,18.30
2019-01-26T21:56:25.920Z,16.60
2019-01-26T21:58:56.553Z,14.50
2019-01-26T22:01:27.639Z,13.63
2019-01-26T22:03:58.456Z,12.90
2019-01-26T22:06:28.815Z,13.47
2019-01-26T22:08:59.595Z,13.63
2019-01-26T22:11:30.219Z,12.77
2019-01-26T22:14:01.016Z,13.03
2019-01-26T22:16:31.694Z,13.03
2019-01-26T22:19:02.478Z,14.03
2019-01-26T22:21:33.055Z,14.57
2019-01-26T22:24:03.808Z,13.77
2019-01-26T22:26:36.126Z,15.37
2019-01-26T22:29:08.498Z,14.83
2019-01-26T22:31:39.300Z,17.30
2019-01-26T22:34:09.919Z,16.67
2019-01-26T22:36:40.556Z,17.03
2019-01-26T22:39:10.901Z,16.80
2019-01-26T22:41:41.616Z,17.27
2019-01-26T22:44:12.325Z,16.20
2019-01-26T22:46:42.953Z,14.77
2019-01-26T22:49:13.649Z,15.67
2019-01-26T22:51:44.338Z,15.80
2019-01-26T22:54:15.000Z,15.87
2019-01-26T22:56:45.240Z,15.87
2019-01-26T22:59:15.927Z,15.37
2019-01-26T23:01:46.470Z,21.40
2019-01-26T23:04:29.179Z,17.57
2019-01-26T23:07:06.135Z,16.23
2019-01-26T23:09:52.031Z,15.37
2019-01-26T23:12:43.877Z,15.80
2019-01-26T23:15:34.070Z,16.83
2019-01-26T23:18:25.908Z,16.90
2019-01-26T23:21:05.315Z,17.27
2019-01-26T23:23:48.013Z,17.27
2019-01-26T23:26:24.817Z,17.10
2019-01-26T23:29:01.764Z,17.47
2019-01-26T23:31:32.530Z,19.93
2019-01-26T23:34:03.164Z,17.93
2019-01-26T23:36:33.893Z,18.53
2019-01-26T23:39:06.070Z,19.33
2019-01-26T23:41:38.343Z,18.47
2019-01-26T23:44:09.142Z,20.50
2019-01-26T23:46:39.722Z,19.87
2019-01-26T23:49:10.320Z,19.20
2019-01-26T23:51:41.083Z,19.23
2019-01-26T23:54:11.609Z,18.87
2019-01-26T23:56:42.212Z,21.60
2019-01-26T23:59:12.861Z,20.50
